Time;durP1;ratioP1;P1;durP2;ratioP2;P2;SDS_P1;SDS_P2;PMS_P1;PMS_P2;Temp;Humidity;BMP_temperature;BMP_pressure;BME280_temperature;BME280_humidity;BME280_pressure;Samples;Min_cycle;Max_cycle;Signal;HPM_P1;HPM_P2
2022/08/05 00:01:19;;;;;;;;;;;;;;;25.55;45.02;99840.41;4269225;33;20275;-83
2022/08/05 00:03:56;;;;;;;;;;;;;;;25.68;44.45;99846.00;4270122;33;19981;-82
2022/08/05 00:06:23;;;;;;;;;;;;;;;25.61;44.53;99836.62;4273196;33;20009;-82
2022/08/05 00:08:59;;;;;;;;;;;;;;;25.61;44.50;99839.28;4275558;33;19985;-82
2022/08/05 00:11:26;;;;;;;;;;;;;;;25.57;44.85;99837.72;4268779;33;20515;-82
2022/08/05 00:16:56;;;;;;;;;;;;;;;25.41;45.34;99838.41;4303319;33;19975;-93
2022/08/05 00:19:24;;;;;;;;;;;;;;;25.51;44.87;99834.37;4300988;33;20048;-89
2022/08/05 00:22:00;;;;;;;;;;;;;;;25.56;44.25;99835.97;4297950;33;20044;-92
2022/08/05 00:24:27;;;;;;;;;;;;;;;25.45;44.75;99833.81;4284686;33;19988;-88
2022/08/05 00:26:57;;;;;;;;;;;;;;;25.50;44.53;99837.97;4306031;33;20875;-90
2022/08/05 00:29:27;;;;;;;;;;;;;;;25.50;44.13;99832.69;4297322;33;19999;-86
2022/08/05 00:32:05;;;;;;;;;;;;;;;25.45;44.73;99834.66;4304987;33;20006;-81
2022/08/05 00:34:41;;;;;;;;;;;;;;;25.45;44.49;99832.03;4303637;33;20040;-84
2022/08/05 00:37:28;;;;;;;;;;;;;;;25.50;44.03;99827.38;4297220;33;19996;-92
2022/08/05 00:40:15;;;;;;;;;;;;;;;25.33;43.32;99835.22;4298088;33;20067;-87
2022/08/05 00:42:53;;;;;;;;;;;;;;;25.48;43.43;99823.06;4289101;33;20084;-89
2022/08/05 00:45:20;;;;;;;;;;;;;;;25.13;44.14;99837.91;4303347;33;20006;-87
2022/08/05 00:48:08;;;;;;;;;;;;;;;25.50;43.23;99837.97;4297171;33;19976;-90
2022/08/05 00:50:36;;;;;;;;;;;;;;;25.47;43.64;99831.97;4303678;33;20006;-89
2022/08/05 00:53:03;;;;;;;;;;;;;;;25.52;43.71;99830.81;4298813;33;20031;-91
2022/08/05 00:55:50;;;;;;;;;;;;;;;25.44;43.90;99826.81;4303143;33;19980;-90
2022/08/05 00:58:17;;;;;;;;;;;;;;;25.46;43.60;99824.91;4303859;33;20598;-89
2022/08/05 01:00:45;;;;;;;;;;;;;;;25.38;43.45;99825.28;4298842;33;19991;-90
2022/08/05 01:03:12;;;;;;;;;;;;;;;25.46;43.02;99825.81;4298040;33;19999;-89
2022/08/05 01:05:51;;;;;;;;;;;;;;;25.44;43.02;99817.06;4304291;33;19988;-83
2022/08/05 01:08:21;;;;;;;;;;;;;;;25.31;43.76;99821.19;4312544;33;20357;-90
2022/08/05 01:11:37;;;;;;;;;;;;;;;25.29;43.50;99812.44;4311299;33;19985;-87
2022/08/05 01:14:05;;;;;;;;;;;;;;;25.07;44.23;99823.09;4295590;33;19980;-83
2022/08/05 01:16:34;;;;;;;;;;;;;;;25.35;43.44;99821.91;4311426;33;20055;-87
2022/08/05 01:19:21;;;;;;;;;;;;;;;25.31;43.87;99821.19;4309631;33;20024;-85
2022/08/05 01:22:08;;;;;;;;;;;;;;;25.23;43.95;99815.38;4304346;33;20011;-85
2022/08/05 01:24:53;;;;;;;;;;;;;;;25.33;43.51;99816.66;4284998;33;19993;-90
2022/08/05 01:27:20;;;;;;;;;;;;;;;25.24;43.73;99822.41;4306440;33;19979;-89
2022/08/05 01:29:48;;;;;;;;;;;;;;;25.17;44.11;99826.22;4300150;33;20031;-94
2022/08/05 01:32:19;;;;;;;;;;;;;;;25.20;44.00;99823.44;4308457;33;20004;-93
2022/08/05 01:34:51;;;;;;;;;;;;;;;25.10;44.22;99822.97;4311703;33;20003;-89
2022/08/05 01:37:36;;;;;;;;;;;;;;;25.11;44.01;99823.81;4300238;33;20016;-92
2022/08/05 01:40:11;;;;;;;;;;;;;;;25.26;44.13;99823.19;4297705;33;20030;-88
2022/08/05 01:42:39;;;;;;;;;;;;;;;25.04;44.46;99824.09;4303737;33;20019;-88
2022/08/05 01:45:06;;;;;;;;;;;;;;;24.78;44.68;99824.38;4300779;33;19980;-87
2022/08/05 01:47:34;;;;;;;;;;;;;;;25.04;43.71;99832.03;4297801;33;20011;-87
2022/08/05 01:50:11;;;;;;;;;;;;;;;25.17;43.64;99836.84;4296257;33;19981;-86
2022/08/05 01:52:42;;;;;;;;;;;;;;;25.01;44.50;99834.81;4296935;33;19988;-85
2022/08/05 01:55:10;;;;;;;;;;;;;;;24.85;45.04;99832.91;4281819;33;20011;-93
2022/08/05 01:57:40;;;;;;;;;;;;;;;24.89;44.36;99834.47;4256038;33;19989;-92
2022/08/05 02:00:27;;;;;;;;;;;;;;;24.98;44.06;99834.97;4268283;33;19982;-91
2022/08/05 02:02:57;;;;;;;;;;;;;;;24.80;44.94;99830.47;4272224;33;20016;-92
2022/08/05 02:05:26;;;;;;;;;;;;;;;24.90;44.85;99826.50;4287467;33;20000;-92
2022/08/05 02:07:56;;;;;;;;;;;;;;;24.91;44.86;99828.19;4287308;33;19995;-93
2022/08/05 02:10:29;;;;;;;;;;;;;;;24.86;44.94;99824.91;4283571;33;19984;-91
2022/08/05 02:13:00;;;;;;;;;;;;;;;24.74;45.60;99820.13;4284811;33;19995;-86
2022/08/05 02:15:34;;;;;;;;;;;;;;;24.71;45.87;99820.25;4291121;33;20003;-91
2022/08/05 02:18:05;;;;;;;;;;;;;;;24.64;45.53;99817.03;4282775;33;20008;-89
2022/08/05 02:21:04;;;;;;;;;;;;;;;24.56;45.29;99822.62;4293613;33;19977;-90
2022/08/05 02:23:31;;;;;;;;;;;;;;;24.59;45.47;99825.13;4295861;33;20000;-86
2022/08/05 02:25:59;;;;;;;;;;;;;;;24.59;45.79;99825.13;4291920;33;19984;-93
2022/08/05 02:28:28;;;;;;;;;;;;;;;24.65;45.20;99820.53;4283863;33;20040;-87
2022/08/05 02:31:03;;;;;;;;;;;;;;;24.48;45.83;99823.88;4270530;33;19981;-86
2022/08/05 02:33:31;;;;;;;;;;;;;;;24.51;45.91;99819.31;4282123;33;20331;-92
2022/08/05 02:36:05;;;;;;;;;;;;;;;24.47;45.84;99823.00;4290124;33;20303;-89
2022/08/05 02:38:35;;;;;;;;;;;;;;;24.45;45.67;99827.50;4281854;33;20003;-90
2022/08/05 02:41:02;;;;;;;;;;;;;;;24.24;46.54;99820.41;4281979;33;20331;-92
2022/08/05 02:43:43;;;;;;;;;;;;;;;24.27;46.06;99815.00;4277734;33;20357;-90
2022/08/05 02:46:30;;;;;;;;;;;;;;;24.24;46.63;99815.12;4282238;33;20275;-89
2022/08/05 02:48:57;;;;;;;;;;;;;;;24.16;46.97;99818.09;4289555;33;19985;-88
2022/08/05 02:51:24;;;;;;;;;;;;;;;24.22;46.49;99816.94;4283078;33;19991;-90
2022/08/05 02:54:12;;;;;;;;;;;;;;;24.20;46.75;99818.81;4283669;33;19981;-90
2022/08/05 02:56:59;;;;;;;;;;;;;;;24.12;47.16;99827.03;4277137;33;19984;-92
2022/08/05 02:59:26;;;;;;;;;;;;;;;23.98;47.61;99819.66;4269925;33;19977;-91
2022/08/05 03:01:57;;;;;;;;;;;;;;;23.95;47.44;99814.50;4269986;33;19972;-89
2022/08/05 03:04:24;;;;;;;;;;;;;;;24.00;46.92;99816.97;4288422;33;19996;-93
2022/08/05 03:06:51;;;;;;;;;;;;;;;24.09;46.86;99817.47;4295831;33;20028;-91
2022/08/05 03:09:25;;;;;;;;;;;;;;;24.11;47.05;99812.09;4279815;33;20005;-91
2022/08/05 03:12:04;;;;;;;;;;;;;;;23.82;48.15;99813.25;4291934;33;19977;-91
2022/08/05 03:14:31;;;;;;;;;;;;;;;23.97;47.51;99807.38;4295777;33;20244;-91
2022/08/05 03:16:59;;;;;;;;;;;;;;;23.81;48.21;99801.81;4294081;33;19998;-90
2022/08/05 03:19:26;;;;;;;;;;;;;;;23.70;48.37;99803.16;4287872;33;19991;-90
2022/08/05 03:22:02;;;;;;;;;;;;;;;23.77;48.27;99804.63;4276504;33;20008;-96
2022/08/05 03:24:43;;;;;;;;;;;;;;;23.85;47.75;99797.28;4296245;33;19988;-83
2022/08/05 03:27:17;;;;;;;;;;;;;;;23.80;47.88;99793.94;4296066;33;20375;-86
2022/08/05 03:29:44;;;;;;;;;;;;;;;23.56;48.67;99796.59;4278685;33;19988;-90
2022/08/05 03:32:30;;;;;;;;;;;;;;;23.60;48.50;99798.19;4296621;33;19988;-89
2022/08/05 03:34:59;;;;;;;;;;;;;;;23.71;48.20;99799.56;4289963;33;19989;-91
2022/08/05 03:37:26;;;;;;;;;;;;;;;23.73;48.24;99800.38;4291605;33;20001;-90
2022/08/05 03:39:56;;;;;;;;;;;;;;;23.64;48.20;99794.53;4274569;33;20048;-88
2022/08/05 03:42:26;;;;;;;;;;;;;;;23.69;48.22;99791.72;4286076;33;19993;-89
2022/08/05 03:44:57;;;;;;;;;;;;;;;23.59;48.73;99795.63;4284995;33;20394;-87
2022/08/05 03:47:24;;;;;;;;;;;;;;;23.65;48.48;99790.94;4284091;33;20504;-85
2022/08/05 03:49:56;;;;;;;;;;;;;;;23.63;48.84;99798.06;4289113;33;20755;-91
2022/08/05 03:52:23;;;;;;;;;;;;;;;23.66;48.52;99792.66;4295665;33;19984;-92
2022/08/05 03:55:11;;;;;;;;;;;;;;;23.49;49.51;99794.25;4295492;33;19980;-83
2022/08/05 03:57:57;;;;;;;;;;;;;;;23.52;49.28;99800.28;4290162;33;20028;-93
2022/08/05 04:00:30;;;;;;;;;;;;;;;23.81;48.04;99800.97;4281079;33;19988;-89
2022/08/05 04:02:57;;;;;;;;;;;;;;;23.64;49.13;99798.91;4282366;33;20366;-84
2022/08/05 04:05:26;;;;;;;;;;;;;;;23.53;49.25;99801.97;4258493;33;20056;-91
2022/08/05 04:08:03;;;;;;;;;;;;;;;23.63;49.07;99808.63;4293269;33;20362;-86
2022/08/05 04:10:40;;;;;;;;;;;;;;;23.53;49.71;99801.97;4295700;33;20028;-92
2022/08/05 04:13:07;;;;;;;;;;;;;;;23.61;49.52;99805.22;4291709;33;19984;-87
2022/08/05 04:15:34;;;;;;;;;;;;;;;23.52;50.41;99802.91;4276736;33;19989;-85
2022/08/05 04:18:03;;;;;;;;;;;;;;;23.67;49.63;99794.41;4296062;33;19996;-92
2022/08/05 04:20:35;;;;;;;;;;;;;;;23.75;49.91;99801.19;4291733;33;20023;-88
2022/08/05 04:23:02;;;;;;;;;;;;;;;23.72;49.90;99796.03;4287614;33;20129;-89
2022/08/05 04:25:29;;;;;;;;;;;;;;;23.62;50.40;99796.34;4282076;33;20005;-90
2022/08/05 04:28:16;;;;;;;;;;;;;;;23.72;50.28;99801.31;4288374;33;19988;-88
2022/08/05 04:30:43;;;;;;;;;;;;;;;23.80;50.46;99793.94;4282092;33;20007;-89
2022/08/05 04:33:11;;;;;;;;;;;;;;;23.95;49.67;99793.34;4288283;33;20024;-87
2022/08/05 04:35:38;;;;;;;;;;;;;;;23.83;50.56;99793.81;4282760;33;20032;-89
2022/08/05 04:38:25;;;;;;;;;;;;;;;24.06;49.78;99801.72;4290965;33;19977;-83
2022/08/05 04:41:06;;;;;;;;;;;;;;;24.05;49.54;99794.69;4296876;33;19989;-84
2022/08/05 04:43:35;;;;;;;;;;;;;;;24.01;50.40;99793.09;4277282;33;20837;-82
2022/08/05 04:46:03;;;;;;;;;;;;;;;24.19;50.07;99801.22;4298254;33;20334;-88
2022/08/05 04:48:31;;;;;;;;;;;;;;;24.18;50.22;99794.19;4298248;33;20056;-87
2022/08/05 04:50:57;;;;;;;;;;;;;;;24.24;50.57;99793.94;4284679;33;19986;-83
2022/08/05 04:53:29;;;;;;;;;;;;;;;24.20;50.68;99795.00;4296366;33;19981;-83
2022/08/05 04:56:01;;;;;;;;;;;;;;;24.47;49.83;99806.25;4298016;33;19995;-85
2022/08/05 04:58:48;;;;;;;;;;;;;;;24.62;49.05;99791.53;4293850;33;19992;-87
2022/08/05 05:01:15;;;;;;;;;;;;;;;24.51;49.20;99795.50;4281998;33;20044;-84
2022/08/05 05:04:02;;;;;;;;;;;;;;;24.63;48.56;99790.59;4283415;33;20033;-85
2022/08/05 05:06:30;;;;;;;;;;;;;;;24.82;47.93;99791.53;4283566;33;20008;-86
2022/08/05 05:09:06;;;;;;;;;;;;;;;24.70;48.86;99797.38;4282015;33;19993;-84
2022/08/05 05:11:33;;;;;;;;;;;;;;;24.84;48.19;99789.69;4284673;33;20032;-83
2022/08/05 05:14:20;;;;;;;;;;;;;;;24.90;48.68;99794.72;4296280;33;19995;-85
2022/08/05 05:16:58;;;;;;;;;;;;;;;25.00;48.14;99796.03;4296234;33;20000;-86
2022/08/05 05:19:25;;;;;;;;;;;;;;;25.08;47.63;99786.88;4283749;33;20377;-84
2022/08/05 05:22:02;;;;;;;;;;;;;;;25.13;46.87;99792.88;4295532;33;20007;-80
2022/08/05 05:24:49;;;;;;;;;;;;;;;25.28;45.56;99793.03;4287721;33;20028;-82
2022/08/05 05:27:27;;;;;;;;;;;;;;;25.25;45.07;99789.66;4281929;33;19989;-85
2022/08/05 05:30:14;;;;;;;;;;;;;;;25.28;44.80;99787.75;4289634;33;19977;-82
2022/08/05 05:32:58;;;;;;;;;;;;;;;25.43;44.62;99791.50;4297765;33;20445;-82
2022/08/05 05:35:27;;;;;;;;;;;;;;;25.45;44.64;99792.25;4303248;33;19987;-86
2022/08/05 05:38:01;;;;;;;;;;;;;;;25.42;44.63;99786.25;4310823;33;19981;-84
2022/08/05 05:40:31;;;;;;;;;;;;;;;25.63;43.75;99784.41;4310095;33;19985;-85
2022/08/05 05:43:00;;;;;;;;;;;;;;;25.67;44.03;99785.97;4294842;33;20022;-84
2022/08/05 05:45:27;;;;;;;;;;;;;;;25.41;43.54;99782.75;4294519;33;20036;-84
2022/08/05 05:47:56;;;;;;;;;;;;;;;25.86;43.32;99781.53;4289136;33;20056;-84
2022/08/05 05:50:35;;;;;;;;;;;;;;;25.92;43.51;99780.41;4289528;33;19977;-84
2022/08/05 05:53:12;;;;;;;;;;;;;;;26.28;42.13;99783.03;4308392;33;19984;-87
2022/08/05 05:55:48;;;;;;;;;;;;;;;26.13;41.93;99774.06;4287036;33;20036;-86
2022/08/05 05:58:27;;;;;;;;;;;;;;;26.22;41.13;99772.72;4289693;33;19988;-86
2022/08/05 06:00:59;;;;;;;;;;;;;;;26.43;41.54;99776.09;4290662;33;20022;-86
2022/08/05 06:03:39;;;;;;;;;;;;;;;26.20;41.39;99780.78;4289173;33;20020;-87
2022/08/05 06:06:26;;;;;;;;;;;;;;;26.36;40.70;99783.53;4291086;33;20243;-87
2022/08/05 06:08:57;;;;;;;;;;;;;;;26.36;41.20;99780.03;4282132;33;20016;-87
2022/08/05 06:11:24;;;;;;;;;;;;;;;26.49;39.65;99774.97;4307908;33;20335;-86
2022/08/05 06:13:54;;;;;;;;;;;;;;;26.43;40.25;99776.09;4305683;33;20024;-87
2022/08/05 06:16:21;;;;;;;;;;;;;;;26.77;39.95;99780.59;4291945;33;19973;-88
2022/08/05 06:18:58;;;;;;;;;;;;;;;26.93;38.85;99785.09;4290226;33;20465;-87
2022/08/05 06:21:31;;;;;;;;;;;;;;;26.71;39.79;99785.34;4291723;33;20008;-87
2022/08/05 06:24:04;;;;;;;;;;;;;;;26.97;39.29;99781.34;4293046;33;20019;-87
2022/08/05 06:26:33;;;;;;;;;;;;;;;27.13;38.81;99779.59;4292235;33;20004;-87
2022/08/05 06:29:01;;;;;;;;;;;;;;;27.37;38.07;99780.94;4280443;33;20019;-87
2022/08/05 06:31:31;;;;;;;;;;;;;;;27.16;38.28;99781.28;4292994;33;19980;-85
2022/08/05 06:33:59;;;;;;;;;;;;;;;27.24;38.32;99779.91;4292628;33;19985;-88
2022/08/05 06:36:34;;;;;;;;;;;;;;;27.33;36.83;99779.41;4282110;33;19992;-88
2022/08/05 06:39:21;;;;;;;;;;;;;;;27.64;36.65;99783.06;4293680;33;20287;-88
2022/08/05 06:41:54;;;;;;;;;;;;;;;27.89;36.48;99781.69;4291426;33;20048;-88
2022/08/05 06:44:23;;;;;;;;;;;;;;;28.43;35.72;99782.16;4294191;33;19984;-86
2022/08/05 06:46:51;;;;;;;;;;;;;;;29.00;33.76;99771.63;4293187;33;19995;-89
2022/08/05 06:49:20;;;;;;;;;;;;;;;29.36;33.93;99778.34;4293131;33;20014;-86
2022/08/05 06:52:09;;;;;;;;;;;;;;;29.82;32.13;99780.78;4289968;33;20012;-85
2022/08/05 06:54:55;;;;;;;;;;;;;;;30.25;31.98;99780.63;4290502;33;20374;-84
2022/08/05 06:57:23;;;;;;;;;;;;;;;30.66;31.20;99771.66;4279634;33;19976;-89
2022/08/05 07:00:09;;;;;;;;;;;;;;;31.02;31.41;99785.19;4292702;33;20044;-84
2022/08/05 07:02:44;;;;;;;;;;;;;;;31.42;30.55;99771.69;4291186;33;19996;-86
2022/08/05 07:05:11;;;;;;;;;;;;;;;31.74;28.55;99776.53;4292591;33;19996;-85
2022/08/05 07:07:47;;;;;;;;;;;;;;;31.85;29.26;99776.62;4291285;33;20007;-83
2022/08/05 07:10:14;;;;;;;;;;;;;;;31.94;29.26;99784.03;4292820;33;20319;-85
2022/08/05 07:18:30;;;;;;;;;;;;;;;32.85;28.17;99786.09;4277309;33;19980;-81
2022/08/05 07:20:58;;;;;;;;;;;;;;;32.98;27.04;99785.16;4276893;33;19988;-83
2022/08/05 07:23:31;;;;;;;;;;;;;;;33.08;26.10;99786.16;4296405;33;19988;-83
2022/08/05 07:25:58;;;;;;;;;;;;;;;33.29;24.73;99773.72;4293654;33;20000;-85
2022/08/05 07:28:25;;;;;;;;;;;;;;;33.43;25.16;99782.50;4299179;33;20322;-86
2022/08/05 07:30:52;;;;;;;;;;;;;;;33.59;27.04;99785.69;4304326;33;20066;-85
2022/08/05 07:33:20;;;;;;;;;;;;;;;33.27;25.95;99780.19;4296248;33;19999;-83
2022/08/05 07:36:03;;;;;;;;;;;;;;;33.73;24.84;99782.75;4295880;33;20037;-83
2022/08/05 07:38:47;;;;;;;;;;;;;;;34.17;24.24;99780.94;4307143;33;19999;-84
2022/08/05 07:41:16;;;;;;;;;;;;;;;34.61;23.18;99773.69;4297679;33;19984;-86
2022/08/05 07:44:04;;;;;;;;;;;;;;;34.57;23.79;99777.63;4294877;33;20056;-83
2022/08/05 07:46:36;;;;;;;;;;;;;;;34.55;24.37;99768.81;4297893;33;20763;-82
2022/08/05 07:49:03;;;;;;;;;;;;;;;34.85;22.83;99769.88;4285290;33;20353;-84
2022/08/05 07:51:35;;;;;;;;;;;;;;;34.60;22.55;99771.13;4302234;33;19988;-82
2022/08/05 07:54:25;;;;;;;;;;;;;;;34.75;23.62;99764.44;4293768;33;19985;-83
2022/08/05 07:56:59;;;;;;;;;;;;;;;34.95;23.06;99770.78;4296478;33;20031;-86
2022/08/05 07:59:46;;;;;;;;;;;;;;;35.37;22.96;99768.88;4298120;33;19988;-83
2022/08/05 08:02:15;;;;;;;;;;;;;;;35.59;22.81;99764.31;4296045;33;19997;-83
2022/08/05 08:04:45;;;;;;;;;;;;;;;35.63;21.63;99771.97;4294646;33;20007;-85
2022/08/05 08:07:12;;;;;;;;;;;;;;;35.60;22.58;99772.22;4291614;33;19988;-83
2022/08/05 08:09:39;;;;;;;;;;;;;;;35.68;21.71;99773.41;4292752;33;19986;-83
2022/08/05 08:12:06;;;;;;;;;;;;;;;35.66;22.99;99770.00;4299560;33;19996;-86
2022/08/05 08:14:53;;;;;;;;;;;;;;;35.51;23.26;99770.31;4293757;33;20040;-83
2022/08/05 08:17:20;;;;;;;;;;;;;;;35.72;24.12;99770.28;4293042;33;20007;-82
2022/08/05 08:19:47;;;;;;;;;;;;;;;36.15;21.40;99769.09;4292840;33;19976;-82
2022/08/05 08:22:35;;;;;;;;;;;;;;;36.19;21.68;99772.37;4304195;33;19997;-82
2022/08/05 08:25:09;;;;;;;;;;;;;;;36.25;21.58;99771.78;4294918;33;20843;-83
2022/08/05 08:27:43;;;;;;;;;;;;;;;36.34;21.19;99765.53;4309499;33;19999;-83
2022/08/05 08:30:17;;;;;;;;;;;;;;;36.73;21.01;99765.53;4294783;33;20032;-82
2022/08/05 08:33:09;;;;;;;;;;;;;;;36.40;21.82;99758.72;4294054;33;19980;-83
2022/08/05 08:35:40;;;;;;;;;;;;;;;36.64;21.02;99761.00;4310861;33;20071;-81
2022/08/05 08:38:27;;;;;;;;;;;;;;;36.53;21.94;99759.31;4317400;33;20011;-82
2022/08/05 08:41:07;;;;;;;;;;;;;;;36.74;20.51;99756.44;4294808;33;20052;-84
2022/08/05 08:43:38;;;;;;;;;;;;;;;36.54;20.44;99761.88;4305949;33;20024;-84
2022/08/05 08:46:26;;;;;;;;;;;;;;;36.64;21.65;99755.63;4306331;33;20092;-83
2022/08/05 08:48:54;;;;;;;;;;;;;;;36.59;21.86;99764.13;4241957;33;20031;-81
2022/08/05 08:51:41;;;;;;;;;;;;;;;36.90;21.38;99767.47;4295280;33;19992;-81
2022/08/05 08:54:28;;;;;;;;;;;;;;;36.77;21.10;99762.41;4308097;33;19979;-82
2022/08/05 08:56:57;;;;;;;;;;;;;;;36.93;21.30;99766.34;4300462;33;20319;-82
2022/08/05 08:59:25;;;;;;;;;;;;;;;37.57;20.08;99770.97;4195284;33;20012;-82
2022/08/05 09:01:53;;;;;;;;;;;;;;;37.34;21.10;99759.69;4180354;33;20007;-81
2022/08/05 09:04:23;;;;;;;;;;;;;;;37.36;20.44;99752.25;4295877;33;20048;-83
2022/08/05 09:06:56;;;;;;;;;;;;;;;37.12;20.88;99755.50;4301077;33;20330;-83
2022/08/05 09:09:24;;;;;;;;;;;;;;;37.05;20.84;99758.94;4307281;33;20028;-82
2022/08/05 09:11:58;;;;;;;;;;;;;;;37.15;20.85;99748.97;4306503;33;19980;-83
2022/08/05 09:14:38;;;;;;;;;;;;;;;37.23;20.46;99751.75;4306536;33;19973;-83
2022/08/05 09:17:25;;;;;;;;;;;;;;;37.21;21.27;99749.22;4296567;33;19999;-81
2022/08/05 09:20:07;;;;;;;;;;;;;;;37.07;20.02;99740.75;4302783;33;19999;-83
2022/08/05 09:22:53;;;;;;;;;;;;;;;37.45;20.78;99746.00;4292370;33;20382;-82
2022/08/05 09:25:31;;;;;;;;;;;;;;;37.83;19.62;99743.22;4289976;33;19988;-84
2022/08/05 09:28:22;;;;;;;;;;;;;;;37.27;20.87;99739.69;4302049;33;20108;-81
2022/08/05 09:30:56;;;;;;;;;;;;;;;37.61;20.06;99730.97;3980140;33;10008675;-82
2022/08/05 09:33:23;;;;;;;;;;;;;;;37.51;20.04;99727.50;4290569;33;19981;-81
2022/08/05 09:36:02;;;;;;;;;;;;;;;37.82;20.40;99726.16;4287369;33;20048;-82
2022/08/05 09:38:37;;;;;;;;;;;;;;;38.00;19.25;99722.62;4301582;33;20011;-83
2022/08/05 09:41:06;;;;;;;;;;;;;;;37.58;19.36;99723.19;4295533;33;20006;-83
2022/08/05 09:43:34;;;;;;;;;;;;;;;37.78;20.11;99719.37;4301897;33;19992;-85
2022/08/05 09:46:22;;;;;;;;;;;;;;;37.49;18.52;99713.28;4291710;33;19981;-84
2022/08/05 09:48:55;;;;;;;;;;;;;;;37.66;19.44;99709.78;4281781;33;20048;-80
2022/08/05 09:51:36;;;;;;;;;;;;;;;37.12;19.82;99712.31;4297364;33;20007;-85
2022/08/05 09:54:08;;;;;;;;;;;;;;;37.28;20.36;99717.06;4320884;33;19994;-84
2022/08/05 09:56:36;;;;;;;;;;;;;;;36.89;20.59;99717.22;4321404;33;19989;-84
2022/08/05 09:59:03;;;;;;;;;;;;;;;37.50;19.84;99704.19;4321703;33;19984;-82
2022/08/05 10:01:32;;;;;;;;;;;;;;;37.85;19.35;99698.81;4322168;33;19996;-85
2022/08/05 10:04:03;;;;;;;;;;;;;;;38.10;19.59;99696.34;4301043;33;20036;-84
2022/08/05 10:06:39;;;;;;;;;;;;;;;38.34;18.48;99693.84;4282173;33;20011;-84
2022/08/05 10:09:16;;;;;;;;;;;;;;;37.90;19.45;99695.63;4291500;33;20367;-83
2022/08/05 10:11:54;;;;;;;;;;;;;;;38.04;18.62;99697.00;4283503;33;20037;-83
2022/08/05 10:14:22;;;;;;;;;;;;;;;38.10;19.58;99690.94;4288126;33;19949;-84
2022/08/05 10:16:55;;;;;;;;;;;;;;;38.30;19.56;99691.62;4281854;33;19981;-84
2022/08/05 10:19:22;;;;;;;;;;;;;;;38.33;18.07;99677.78;4289625;33;20773;-84
2022/08/05 10:22:09;;;;;;;;;;;;;;;37.66;20.08;99680.06;4314551;33;20460;-84
2022/08/05 10:24:56;;;;;;;;;;;;;;;38.09;18.10;99681.13;4290838;33;20007;-83
2022/08/05 10:27:23;;;;;;;;;;;;;;;38.43;18.64;99675.00;4298936;33;20030;-83
2022/08/05 10:30:10;;;;;;;;;;;;;;;38.21;20.08;99674.47;4300439;33;20035;-84
2022/08/05 10:32:58;;;;;;;;;;;;;;;38.14;18.50;99671.56;4300857;33;19985;-84
2022/08/05 10:35:29;;;;;;;;;;;;;;;38.10;19.01;99669.31;4316491;33;20011;-84
2022/08/05 10:38:09;;;;;;;;;;;;;;;38.64;18.63;99666.50;4311351;33;19980;-84
2022/08/05 10:40:39;;;;;;;;;;;;;;;38.65;17.87;99658.25;4301660;33;20007;-85
2022/08/05 10:43:31;;;;;;;;;;;;;;;38.60;18.67;99660.56;4295573;33;19996;-84
2022/08/05 10:46:04;;;;;;;;;;;;;;;38.86;18.42;99659.72;4312553;33;20007;-85
2022/08/05 10:48:35;;;;;;;;;;;;;;;39.00;18.12;99656.41;4301520;33;19980;-86
2022/08/05 10:51:22;;;;;;;;;;;;;;;38.86;17.47;99651.59;4308459;33;20136;-85
2022/08/05 10:53:59;;;;;;;;;;;;;;;39.19;17.36;99650.72;4287252;33;20022;-82
2022/08/05 10:56:50;;;;;;;;;;;;;;;39.07;17.90;99652.88;4301511;33;20076;-86
2022/08/05 10:59:24;;;;;;;;;;;;;;;39.24;16.94;99642.94;4295072;33;20307;-84
2022/08/05 11:02:13;;;;;;;;;;;;;;;39.10;17.84;99646.28;4291669;33;19989;-83
2022/08/05 11:05:02;;;;;;;;;;;;;;;38.97;17.26;99648.63;4304739;33;20020;-84
2022/08/05 11:07:30;;;;;;;;;;;;;;;39.28;18.00;99640.78;4300347;33;20000;-82
2022/08/05 11:10:20;;;;;;;;;;;;;;;38.84;16.82;99638.25;4297457;33;19980;-82
2022/08/05 11:12:47;;;;;;;;;;;;;;;38.92;16.77;99637.41;4302453;33;19988;-83
2022/08/05 11:15:22;;;;;;;;;;;;;;;39.26;16.75;99640.94;4299841;33;20016;-83
2022/08/05 11:18:27;;;;;;;;;;;;;;;39.17;17.67;99631.06;4301313;33;19988;-85
2022/08/05 11:20:58;;;;;;;;;;;;;;;39.18;17.50;99637.34;4299526;33;19981;-85
2022/08/05 11:23:28;;;;;;;;;;;;;;;39.25;17.02;99631.12;4303464;33;19992;-84
2022/08/05 11:26:16;;;;;;;;;;;;;;;39.37;16.08;99633.53;4304351;33;20000;-84
2022/08/05 11:29:00;;;;;;;;;;;;;;;39.55;16.39;99628.81;4300122;33;20030;-82
2022/08/05 11:31:43;;;;;;;;;;;;;;;39.58;16.57;99628.50;4290729;33;20079;-84
2022/08/05 11:34:39;;;;;;;;;;;;;;;39.34;16.64;99625.72;4302582;33;20782;-86
2022/08/05 11:37:38;;;;;;;;;;;;;;;39.63;16.04;99620.72;4297851;33;20006;-86
2022/08/05 11:40:48;;;;;;;;;;;;;;;39.61;16.92;99628.16;4297884;33;19996;-84
2022/08/05 11:43:21;;;;;;;;;;;;;;;39.15;16.04;99622.25;4294974;33;19988;-84
2022/08/05 11:46:08;;;;;;;;;;;;;;;39.32;16.20;99628.63;4306424;33;19988;-84
2022/08/05 11:48:55;;;;;;;;;;;;;;;39.10;16.82;99619.22;4304038;33;20014;-85
2022/08/05 11:51:26;;;;;;;;;;;;;;;39.13;17.28;99629.72;4322667;33;19996;-82
2022/08/05 11:54:26;;;;;;;;;;;;;;;39.29;16.71;99624.38;4303455;33;19985;-83
2022/08/05 11:57:00;;;;;;;;;;;;;;;39.30;16.61;99626.06;4292646;33;20004;-83
2022/08/05 11:59:34;;;;;;;;;;;;;;;39.25;16.42;99622.16;4302955;33;20002;-85
2022/08/05 12:02:17;;;;;;;;;;;;;;;39.61;17.10;99622.75;4304522;33;19992;-83
2022/08/05 12:04:58;;;;;;;;;;;;;;;39.78;15.91;99628.19;4303580;33;20003;-82
2022/08/05 12:07:27;;;;;;;;;;;;;;;39.74;15.83;99628.53;4303306;33;19985;-83
2022/08/05 12:10:18;;;;;;;;;;;;;;;39.46;16.52;99624.41;4300109;33;19988;-85
2022/08/05 12:12:45;;;;;;;;;;;;;;;39.77;16.33;99623.81;4306729;33;19991;-85
2022/08/05 12:15:27;;;;;;;;;;;;;;;39.74;15.71;99620.41;4302171;33;19988;-89
2022/08/05 12:18:05;;;;;;;;;;;;;;;39.65;16.39;99613.25;4312929;33;19988;-84
2022/08/05 12:20:38;;;;;;;;;;;;;;;39.76;16.54;99604.00;4185841;33;3892431;-87
2022/08/05 12:23:08;;;;;;;;;;;;;;;39.79;15.84;99602.78;4321028;33;19984;-82
2022/08/05 12:25:48;;;;;;;;;;;;;;;39.52;16.91;99612.91;4301974;33;20008;-84
2022/08/05 12:28:29;;;;;;;;;;;;;;;39.53;16.27;99609.16;4305034;33;20018;-83
2022/08/05 12:31:00;;;;;;;;;;;;;;;39.42;16.61;99601.38;4318856;33;20010;-84
2022/08/05 12:33:28;;;;;;;;;;;;;;;39.40;17.92;99603.41;4304128;33;20035;-86
2022/08/05 12:36:07;;;;;;;;;;;;;;;39.62;16.15;99594.63;4302897;33;20024;-87
2022/08/05 12:38:36;;;;;;;;;;;;;;;39.56;17.32;99597.16;4317051;33;20055;-84
2022/08/05 12:41:06;;;;;;;;;;;;;;;39.26;15.85;99597.59;4304327;33;19992;-85
2022/08/05 12:43:55;;;;;;;;;;;;;;;39.38;16.82;99600.03;4290687;33;20382;-85
2022/08/05 12:46:25;;;;;;;;;;;;;;;39.26;16.61;99603.00;4312096;33;19990;-81
2022/08/05 12:48:57;;;;;;;;;;;;;;;39.13;16.78;99591.81;4306007;33;19984;-83
2022/08/05 12:51:26;;;;;;;;;;;;;;;39.20;17.67;99592.00;4318467;33;20322;-88
2022/08/05 12:54:23;;;;;;;;;;;;;;;39.16;16.76;99596.91;4315694;33;20022;-89
2022/08/05 12:56:56;;;;;;;;;;;;;;;39.17;16.71;99593.16;4300758;33;19980;-87
2022/08/05 12:59:24;;;;;;;;;;;;;;;38.66;17.66;99588.75;4316359;33;19988;-82
2022/08/05 13:02:11;;;;;;;;;;;;;;;38.82;16.50;99584.22;4312507;33;19988;-86
2022/08/05 13:04:40;;;;;;;;;;;;;;;38.57;17.58;99585.12;4299231;33;20000;-82
2022/08/05 13:07:21;;;;;;;;;;;;;;;38.58;16.71;99584.16;4296605;33;20421;-84
2022/08/05 13:10:09;;;;;;;;;;;;;;;38.11;18.67;99573.72;4281277;33;20033;-82
2022/08/05 13:12:41;;;;;;;;;;;;;;;38.18;17.67;99574.75;4289599;33;20333;-85
2022/08/05 13:15:27;;;;;;;;;;;;;;;38.31;17.51;99568.91;4316336;33;20374;-86
2022/08/05 13:18:14;;;;;;;;;;;;;;;38.14;17.41;99567.97;4282479;33;20036;-81
2022/08/05 13:20:46;;;;;;;;;;;;;;;37.69;17.91;99563.56;4285521;33;20884;-82
2022/08/05 13:23:16;;;;;;;;;;;;;;;38.21;17.88;99552.81;4283587;33;19988;-82
2022/08/05 13:25:50;;;;;;;;;;;;;;;37.94;18.34;99551.13;4292232;33;20042;-87
2022/08/05 13:28:27;;;;;;;;;;;;;;;38.46;17.92;99552.97;4292060;33;19990;-87
2022/08/05 13:30:54;;;;;;;;;;;;;;;38.73;16.59;99546.47;4284246;33;20052;-85
2022/08/05 13:33:23;;;;;;;;;;;;;;;38.60;17.22;99549.66;4311055;33;19999;-86
2022/08/05 13:36:11;;;;;;;;;;;;;;;38.52;17.43;99539.66;4305302;33;19988;-87